sensor_id;sensor_type;location;lat;lon;timestamp;P1;durP1;ratioP1;P2;durP2;ratioP2
75021;SDS011;63583;49.976;20.182;2023-09-18T00:01:56;6.35;;;4.63;;
75021;SDS011;63583;49.976;20.182;2023-09-18T00:04:22;6.28;;;4.32;;
75021;SDS011;63583;49.976;20.182;2023-09-18T00:06:47;6.93;;;4.53;;
75021;SDS011;63583;49.976;20.182;2023-09-18T00:09:13;5.97;;;4.60;;
75021;SDS011;63583;49.976;20.182;2023-09-18T00:11:42;5.55;;;4.00;;
75021;SDS011;63583;49.976;20.182;2023-09-18T00:16:33;6.28;;;4.22;;
75021;SDS011;63583;49.976;20.182;2023-09-18T00:18:59;9.77;;;4.50;;
75021;SDS011;63583;49.976;20.182;2023-09-18T00:21:26;6.45;;;4.53;;
75021;SDS011;63583;49.976;20.182;2023-09-18T00:23:52;5.47;;;4.40;;
75021;SDS011;63583;49.976;20.182;2023-09-18T00:26:17;6.50;;;5.13;;
75021;SDS011;63583;49.976;20.182;2023-09-18T00:28:43;7.43;;;4.82;;
75021;SDS011;63583;49.976;20.182;2023-09-18T00:31:09;6.45;;;4.38;;
75021;SDS011;63583;49.976;20.182;2023-09-18T00:33:35;6.15;;;4.40;;
75021;SDS011;63583;49.976;20.182;2023-09-18T00:36:01;6.05;;;4.47;;
75021;SDS011;63583;49.976;20.182;2023-09-18T00:38:27;5.93;;;4.65;;
75021;SDS011;63583;49.976;20.182;2023-09-18T00:40:52;5.88;;;4.35;;
75021;SDS011;63583;49.976;20.182;2023-09-18T00:43:18;5.78;;;4.35;;
75021;SDS011;63583;49.976;20.182;2023-09-18T00:45:46;5.32;;;4.32;;
75021;SDS011;63583;49.976;20.182;2023-09-18T00:48:16;10.10;;;4.70;;
75021;SDS011;63583;49.976;20.182;2023-09-18T00:50:46;5.88;;;4.32;;
75021;SDS011;63583;49.976;20.182;2023-09-18T00:53:19;6.93;;;4.38;;
75021;SDS011;63583;49.976;20.182;2023-09-18T00:55:47;7.28;;;4.53;;
75021;SDS011;63583;49.976;20.182;2023-09-18T00:58:13;6.15;;;4.18;;
75021;SDS011;63583;49.976;20.182;2023-09-18T01:00:39;6.70;;;4.20;;
75021;SDS011;63583;49.976;20.182;2023-09-18T01:03:06;6.95;;;4.63;;
75021;SDS011;63583;49.976;20.182;2023-09-18T01:05:32;5.38;;;4.20;;
75021;SDS011;63583;49.976;20.182;2023-09-18T01:07:59;6.40;;;4.32;;
75021;SDS011;63583;49.976;20.182;2023-09-18T01:10:26;6.85;;;5.28;;
75021;SDS011;63583;49.976;20.182;2023-09-18T01:13:04;7.00;;;4.50;;
75021;SDS011;63583;49.976;20.182;2023-09-18T01:15:42;6.20;;;4.50;;
75021;SDS011;63583;49.976;20.182;2023-09-18T01:18:10;6.22;;;4.38;;
75021;SDS011;63583;49.976;20.182;2023-09-18T01:20:36;6.10;;;4.60;;
75021;SDS011;63583;49.976;20.182;2023-09-18T01:23:02;5.95;;;3.70;;
75021;SDS011;63583;49.976;20.182;2023-09-18T01:25:27;6.10;;;4.47;;
75021;SDS011;63583;49.976;20.182;2023-09-18T01:27:56;5.93;;;4.78;;
75021;SDS011;63583;49.976;20.182;2023-09-18T01:30:22;7.05;;;5.10;;
75021;SDS011;63583;49.976;20.182;2023-09-18T01:32:50;6.35;;;4.93;;
75021;SDS011;63583;49.976;20.182;2023-09-18T01:35:16;6.35;;;4.50;;
75021;SDS011;63583;49.976;20.182;2023-09-18T01:37:42;7.78;;;5.13;;
75021;SDS011;63583;49.976;20.182;2023-09-18T01:40:10;6.00;;;4.40;;
75021;SDS011;63583;49.976;20.182;2023-09-18T01:42:36;8.20;;;5.40;;
75021;SDS011;63583;49.976;20.182;2023-09-18T01:45:03;7.75;;;5.45;;
75021;SDS011;63583;49.976;20.182;2023-09-18T01:47:30;7.93;;;5.07;;
75021;SDS011;63583;49.976;20.182;2023-09-18T01:49:56;8.38;;;4.97;;
75021;SDS011;63583;49.976;20.182;2023-09-18T01:52:22;6.32;;;5.10;;
75021;SDS011;63583;49.976;20.182;2023-09-18T01:54:48;7.57;;;5.38;;
75021;SDS011;63583;49.976;20.182;2023-09-18T01:57:14;5.95;;;4.85;;
75021;SDS011;63583;49.976;20.182;2023-09-18T01:59:40;7.65;;;5.28;;
75021;SDS011;63583;49.976;20.182;2023-09-18T02:02:06;7.00;;;5.30;;
75021;SDS011;63583;49.976;20.182;2023-09-18T02:04:34;8.48;;;5.03;;
75021;SDS011;63583;49.976;20.182;2023-09-18T02:07:01;6.53;;;5.13;;
75021;SDS011;63583;49.976;20.182;2023-09-18T02:09:26;8.80;;;5.35;;
75021;SDS011;63583;49.976;20.182;2023-09-18T02:11:52;7.85;;;5.22;;
75021;SDS011;63583;49.976;20.182;2023-09-18T02:14:18;8.43;;;5.68;;
75021;SDS011;63583;49.976;20.182;2023-09-18T02:16:44;7.63;;;5.18;;
75021;SDS011;63583;49.976;20.182;2023-09-18T02:19:11;7.72;;;5.60;;
75021;SDS011;63583;49.976;20.182;2023-09-18T02:21:39;6.53;;;5.45;;
75021;SDS011;63583;49.976;20.182;2023-09-18T02:24:05;6.93;;;4.82;;
75021;SDS011;63583;49.976;20.182;2023-09-18T02:26:32;7.00;;;5.10;;
75021;SDS011;63583;49.976;20.182;2023-09-18T02:28:59;8.57;;;5.38;;
75021;SDS011;63583;49.976;20.182;2023-09-18T02:31:26;7.32;;;5.22;;
75021;SDS011;63583;49.976;20.182;2023-09-18T02:33:52;5.97;;;4.90;;
75021;SDS011;63583;49.976;20.182;2023-09-18T02:36:18;7.53;;;5.40;;
75021;SDS011;63583;49.976;20.182;2023-09-18T02:38:44;7.80;;;5.60;;
75021;SDS011;63583;49.976;20.182;2023-09-18T02:41:11;7.13;;;4.93;;
75021;SDS011;63583;49.976;20.182;2023-09-18T02:43:36;6.55;;;5.10;;
75021;SDS011;63583;49.976;20.182;2023-09-18T02:46:03;6.72;;;4.95;;
75021;SDS011;63583;49.976;20.182;2023-09-18T02:48:30;7.43;;;5.43;;
75021;SDS011;63583;49.976;20.182;2023-09-18T02:50:58;7.05;;;5.55;;
75021;SDS011;63583;49.976;20.182;2023-09-18T02:53:24;6.43;;;5.20;;
75021;SDS011;63583;49.976;20.182;2023-09-18T02:55:51;7.45;;;5.60;;
75021;SDS011;63583;49.976;20.182;2023-09-18T02:58:18;7.03;;;5.80;;
75021;SDS011;63583;49.976;20.182;2023-09-18T03:00:46;7.00;;;5.25;;
75021;SDS011;63583;49.976;20.182;2023-09-18T03:03:13;7.50;;;5.80;;
75021;SDS011;63583;49.976;20.182;2023-09-18T03:05:40;6.82;;;5.53;;
75021;SDS011;63583;49.976;20.182;2023-09-18T03:08:07;7.35;;;5.45;;
75021;SDS011;63583;49.976;20.182;2023-09-18T03:10:36;7.72;;;5.88;;
75021;SDS011;63583;49.976;20.182;2023-09-18T03:13:07;6.85;;;5.38;;
75021;SDS011;63583;49.976;20.182;2023-09-18T03:15:34;10.13;;;5.72;;
75021;SDS011;63583;49.976;20.182;2023-09-18T03:18:01;7.10;;;5.75;;
75021;SDS011;63583;49.976;20.182;2023-09-18T03:20:28;8.93;;;6.40;;
75021;SDS011;63583;49.976;20.182;2023-09-18T03:22:55;7.97;;;6.00;;
75021;SDS011;63583;49.976;20.182;2023-09-18T03:25:24;8.13;;;6.30;;
75021;SDS011;63583;49.976;20.182;2023-09-18T03:27:51;9.48;;;5.78;;
75021;SDS011;63583;49.976;20.182;2023-09-18T03:30:21;9.18;;;6.82;;
75021;SDS011;63583;49.976;20.182;2023-09-18T03:32:49;9.23;;;6.00;;
75021;SDS011;63583;49.976;20.182;2023-09-18T03:35:16;7.80;;;6.15;;
75021;SDS011;63583;49.976;20.182;2023-09-18T03:37:45;7.75;;;6.07;;
75021;SDS011;63583;49.976;20.182;2023-09-18T03:40:11;8.80;;;6.22;;
75021;SDS011;63583;49.976;20.182;2023-09-18T03:42:37;8.20;;;5.75;;
75021;SDS011;63583;49.976;20.182;2023-09-18T03:45:06;9.07;;;6.45;;
75021;SDS011;63583;49.976;20.182;2023-09-18T03:47:34;8.40;;;6.45;;
75021;SDS011;63583;49.976;20.182;2023-09-18T03:50:04;10.27;;;6.90;;
75021;SDS011;63583;49.976;20.182;2023-09-18T03:52:30;9.25;;;6.60;;
75021;SDS011;63583;49.976;20.182;2023-09-18T03:54:55;9.82;;;6.90;;
75021;SDS011;63583;49.976;20.182;2023-09-18T03:57:21;10.07;;;6.65;;
75021;SDS011;63583;49.976;20.182;2023-09-18T03:59:47;8.77;;;6.40;;
75021;SDS011;63583;49.976;20.182;2023-09-18T04:02:15;7.97;;;6.28;;
75021;SDS011;63583;49.976;20.182;2023-09-18T04:04:41;8.98;;;6.45;;
75021;SDS011;63583;49.976;20.182;2023-09-18T04:07:07;6.97;;;6.07;;
75021;SDS011;63583;49.976;20.182;2023-09-18T04:09:34;8.38;;;6.20;;
75021;SDS011;63583;49.976;20.182;2023-09-18T04:12:03;8.93;;;6.35;;
75021;SDS011;63583;49.976;20.182;2023-09-18T04:14:34;9.98;;;6.47;;
75021;SDS011;63583;49.976;20.182;2023-09-18T04:16:59;9.05;;;6.55;;
75021;SDS011;63583;49.976;20.182;2023-09-18T04:19:27;10.90;;;6.55;;
75021;SDS011;63583;49.976;20.182;2023-09-18T04:21:52;8.68;;;6.75;;
75021;SDS011;63583;49.976;20.182;2023-09-18T04:24:19;9.73;;;7.18;;
75021;SDS011;63583;49.976;20.182;2023-09-18T04:26:45;11.63;;;7.30;;
75021;SDS011;63583;49.976;20.182;2023-09-18T04:29:11;11.20;;;7.90;;
75021;SDS011;63583;49.976;20.182;2023-09-18T04:31:36;9.55;;;7.38;;
75021;SDS011;63583;49.976;20.182;2023-09-18T04:34:04;10.57;;;7.70;;
75021;SDS011;63583;49.976;20.182;2023-09-18T04:36:30;10.75;;;8.00;;
75021;SDS011;63583;49.976;20.182;2023-09-18T04:38:56;10.20;;;7.75;;
75021;SDS011;63583;49.976;20.182;2023-09-18T04:41:21;10.68;;;7.78;;
75021;SDS011;63583;49.976;20.182;2023-09-18T04:43:47;9.18;;;7.43;;
75021;SDS011;63583;49.976;20.182;2023-09-18T04:46:13;10.63;;;7.63;;
75021;SDS011;63583;49.976;20.182;2023-09-18T04:48:40;10.05;;;6.85;;
75021;SDS011;63583;49.976;20.182;2023-09-18T04:51:06;10.45;;;7.78;;
75021;SDS011;63583;49.976;20.182;2023-09-18T04:53:32;9.05;;;7.05;;
75021;SDS011;63583;49.976;20.182;2023-09-18T04:55:57;10.70;;;7.65;;
75021;SDS011;63583;49.976;20.182;2023-09-18T04:58:23;10.23;;;7.95;;
75021;SDS011;63583;49.976;20.182;2023-09-18T05:00:55;12.15;;;7.60;;
75021;SDS011;63583;49.976;20.182;2023-09-18T05:03:22;9.68;;;7.38;;
75021;SDS011;63583;49.976;20.182;2023-09-18T05:05:48;10.18;;;7.35;;
75021;SDS011;63583;49.976;20.182;2023-09-18T05:08:14;9.77;;;7.47;;
75021;SDS011;63583;49.976;20.182;2023-09-18T05:10:39;13.40;;;8.35;;
75021;SDS011;63583;49.976;20.182;2023-09-18T05:13:05;8.73;;;6.88;;
75021;SDS011;63583;49.976;20.182;2023-09-18T05:15:32;10.75;;;7.63;;
75021;SDS011;63583;49.976;20.182;2023-09-18T05:17:59;12.30;;;7.90;;
75021;SDS011;63583;49.976;20.182;2023-09-18T05:20:25;11.88;;;8.13;;
75021;SDS011;63583;49.976;20.182;2023-09-18T05:22:55;9.35;;;6.88;;
75021;SDS011;63583;49.976;20.182;2023-09-18T05:25:22;9.55;;;7.43;;
75021;SDS011;63583;49.976;20.182;2023-09-18T05:27:49;10.95;;;7.43;;
75021;SDS011;63583;49.976;20.182;2023-09-18T05:30:20;11.57;;;7.47;;
75021;SDS011;63583;49.976;20.182;2023-09-18T05:32:53;8.88;;;6.68;;
75021;SDS011;63583;49.976;20.182;2023-09-18T05:35:19;10.10;;;6.93;;
75021;SDS011;63583;49.976;20.182;2023-09-18T05:37:46;9.43;;;6.00;;
75021;SDS011;63583;49.976;20.182;2023-09-18T05:40:13;10.43;;;7.00;;
75021;SDS011;63583;49.976;20.182;2023-09-18T05:42:42;9.63;;;6.57;;
75021;SDS011;63583;49.976;20.182;2023-09-18T05:45:09;8.45;;;6.75;;
75021;SDS011;63583;49.976;20.182;2023-09-18T05:47:36;9.15;;;6.53;;
75021;SDS011;63583;49.976;20.182;2023-09-18T05:50:06;9.10;;;6.43;;
75021;SDS011;63583;49.976;20.182;2023-09-18T05:52:34;9.30;;;6.80;;
75021;SDS011;63583;49.976;20.182;2023-09-18T05:55:00;8.70;;;6.40;;
75021;SDS011;63583;49.976;20.182;2023-09-18T05:57:29;7.68;;;6.22;;
75021;SDS011;63583;49.976;20.182;2023-09-18T05:59:55;8.10;;;6.25;;
75021;SDS011;63583;49.976;20.182;2023-09-18T06:02:21;8.75;;;6.47;;
75021;SDS011;63583;49.976;20.182;2023-09-18T06:04:48;8.77;;;6.30;;
75021;SDS011;63583;49.976;20.182;2023-09-18T06:07:14;33.60;;;20.80;;
75021;SDS011;63583;49.976;20.182;2023-09-18T06:09:40;40.22;;;20.20;;
75021;SDS011;63583;49.976;20.182;2023-09-18T06:12:06;9.10;;;6.55;;
75021;SDS011;63583;49.976;20.182;2023-09-18T06:14:32;9.30;;;6.82;;
75021;SDS011;63583;49.976;20.182;2023-09-18T06:17:04;10.50;;;7.13;;
75021;SDS011;63583;49.976;20.182;2023-09-18T06:19:31;8.45;;;6.28;;
75021;SDS011;63583;49.976;20.182;2023-09-18T06:21:58;12.43;;;6.50;;
75021;SDS011;63583;49.976;20.182;2023-09-18T06:24:24;8.82;;;6.18;;
75021;SDS011;63583;49.976;20.182;2023-09-18T06:26:49;7.93;;;6.18;;
75021;SDS011;63583;49.976;20.182;2023-09-18T06:29:16;8.00;;;6.07;;
75021;SDS011;63583;49.976;20.182;2023-09-18T06:31:42;12.88;;;7.03;;
75021;SDS011;63583;49.976;20.182;2023-09-18T06:34:07;9.60;;;6.68;;
75021;SDS011;63583;49.976;20.182;2023-09-18T06:36:33;8.93;;;6.60;;
75021;SDS011;63583;49.976;20.182;2023-09-18T06:38:59;9.93;;;6.72;;
75021;SDS011;63583;49.976;20.182;2023-09-18T06:41:25;8.90;;;6.30;;
75021;SDS011;63583;49.976;20.182;2023-09-18T06:43:50;10.60;;;6.97;;
75021;SDS011;63583;49.976;20.182;2023-09-18T06:46:16;8.65;;;7.00;;
75021;SDS011;63583;49.976;20.182;2023-09-18T06:48:42;10.43;;;6.70;;
75021;SDS011;63583;49.976;20.182;2023-09-18T06:51:11;8.70;;;6.50;;
75021;SDS011;63583;49.976;20.182;2023-09-18T06:53:37;9.13;;;7.00;;
75021;SDS011;63583;49.976;20.182;2023-09-18T06:56:02;9.35;;;6.53;;
75021;SDS011;63583;49.976;20.182;2023-09-18T06:58:29;8.48;;;6.53;;
75021;SDS011;63583;49.976;20.182;2023-09-18T07:00:55;8.95;;;6.35;;
75021;SDS011;63583;49.976;20.182;2023-09-18T07:03:23;9.52;;;6.57;;
75021;SDS011;63583;49.976;20.182;2023-09-18T07:05:49;7.25;;;5.85;;
75021;SDS011;63583;49.976;20.182;2023-09-18T07:08:14;8.00;;;6.00;;
75021;SDS011;63583;49.976;20.182;2023-09-18T07:10:45;8.65;;;6.65;;
75021;SDS011;63583;49.976;20.182;2023-09-18T07:13:10;8.43;;;5.78;;
75021;SDS011;63583;49.976;20.182;2023-09-18T07:15:37;8.00;;;6.38;;
75021;SDS011;63583;49.976;20.182;2023-09-18T07:18:03;8.75;;;6.15;;
75021;SDS011;63583;49.976;20.182;2023-09-18T07:20:29;8.30;;;6.47;;
75021;SDS011;63583;49.976;20.182;2023-09-18T07:22:55;7.68;;;6.43;;
75021;SDS011;63583;49.976;20.182;2023-09-18T07:25:21;8.98;;;6.95;;
75021;SDS011;63583;49.976;20.182;2023-09-18T07:27:47;9.00;;;6.57;;
75021;SDS011;63583;49.976;20.182;2023-09-18T07:30:13;9.25;;;7.15;;
75021;SDS011;63583;49.976;20.182;2023-09-18T07:32:44;8.00;;;6.15;;
75021;SDS011;63583;49.976;20.182;2023-09-18T07:35:11;9.48;;;7.30;;
75021;SDS011;63583;49.976;20.182;2023-09-18T07:37:38;8.95;;;7.13;;
75021;SDS011;63583;49.976;20.182;2023-09-18T07:40:05;9.40;;;6.70;;
75021;SDS011;63583;49.976;20.182;2023-09-18T07:42:31;10.45;;;7.10;;
75021;SDS011;63583;49.976;20.182;2023-09-18T07:44:57;9.10;;;6.78;;
75021;SDS011;63583;49.976;20.182;2023-09-18T07:47:23;10.00;;;7.22;;
75021;SDS011;63583;49.976;20.182;2023-09-18T07:49:49;8.77;;;7.30;;
75021;SDS011;63583;49.976;20.182;2023-09-18T07:52:16;13.73;;;7.57;;
75021;SDS011;63583;49.976;20.182;2023-09-18T07:54:42;9.68;;;7.53;;
75021;SDS011;63583;49.976;20.182;2023-09-18T07:57:08;9.57;;;7.35;;
75021;SDS011;63583;49.976;20.182;2023-09-18T07:59:35;9.57;;;7.40;;
75021;SDS011;63583;49.976;20.182;2023-09-18T08:02:01;9.20;;;7.40;;
75021;SDS011;63583;49.976;20.182;2023-09-18T08:04:30;11.05;;;8.43;;
75021;SDS011;63583;49.976;20.182;2023-09-18T08:06:56;9.57;;;7.35;;
75021;SDS011;63583;49.976;20.182;2023-09-18T08:09:22;9.85;;;7.68;;
75021;SDS011;63583;49.976;20.182;2023-09-18T08:11:48;8.15;;;7.22;;
75021;SDS011;63583;49.976;20.182;2023-09-18T08:14:15;11.45;;;7.50;;
75021;SDS011;63583;49.976;20.182;2023-09-18T08:16:42;9.52;;;7.25;;
75021;SDS011;63583;49.976;20.182;2023-09-18T08:19:08;10.48;;;7.68;;
75021;SDS011;63583;49.976;20.182;2023-09-18T08:21:34;10.52;;;8.25;;
75021;SDS011;63583;49.976;20.182;2023-09-18T08:24:00;9.07;;;7.40;;
75021;SDS011;63583;49.976;20.182;2023-09-18T08:26:27;9.88;;;7.72;;
75021;SDS011;63583;49.976;20.182;2023-09-18T08:28:54;10.68;;;7.82;;
75021;SDS011;63583;49.976;20.182;2023-09-18T08:31:19;9.43;;;7.80;;
75021;SDS011;63583;49.976;20.182;2023-09-18T08:33:45;9.65;;;7.70;;
75021;SDS011;63583;49.976;20.182;2023-09-18T08:36:11;11.05;;;8.73;;
75021;SDS011;63583;49.976;20.182;2023-09-18T08:38:38;9.90;;;8.48;;
75021;SDS011;63583;49.976;20.182;2023-09-18T08:41:03;11.18;;;8.20;;
75021;SDS011;63583;49.976;20.182;2023-09-18T08:43:31;12.27;;;8.15;;
75021;SDS011;63583;49.976;20.182;2023-09-18T08:45:57;10.65;;;8.90;;
75021;SDS011;63583;49.976;20.182;2023-09-18T08:48:27;12.07;;;8.50;;
75021;SDS011;63583;49.976;20.182;2023-09-18T08:51:03;11.02;;;8.30;;
75021;SDS011;63583;49.976;20.182;2023-09-18T08:53:31;10.32;;;8.20;;
75021;SDS011;63583;49.976;20.182;2023-09-18T08:55:58;9.57;;;8.07;;
75021;SDS011;63583;49.976;20.182;2023-09-18T08:58:34;9.70;;;8.13;;
75021;SDS011;63583;49.976;20.182;2023-09-18T09:01:03;11.10;;;8.75;;
75021;SDS011;63583;49.976;20.182;2023-09-18T09:03:30;10.23;;;8.82;;
75021;SDS011;63583;49.976;20.182;2023-09-18T09:05:56;10.18;;;8.38;;
75021;SDS011;63583;49.976;20.182;2023-09-18T09:08:29;11.40;;;8.55;;
75021;SDS011;63583;49.976;20.182;2023-09-18T09:10:55;13.57;;;8.77;;
75021;SDS011;63583;49.976;20.182;2023-09-18T09:13:24;9.57;;;8.00;;
75021;SDS011;63583;49.976;20.182;2023-09-18T09:15:53;10.77;;;8.38;;
75021;SDS011;63583;49.976;20.182;2023-09-18T09:18:24;13.05;;;9.27;;
75021;SDS011;63583;49.976;20.182;2023-09-18T09:20:54;10.35;;;8.75;;
75021;SDS011;63583;49.976;20.182;2023-09-18T09:23:26;10.98;;;8.95;;
75021;SDS011;63583;49.976;20.182;2023-09-18T09:25:52;12.32;;;9.88;;
75021;SDS011;63583;49.976;20.182;2023-09-18T09:28:30;14.27;;;9.05;;
75021;SDS011;63583;49.976;20.182;2023-09-18T09:31:00;14.60;;;10.02;;
75021;SDS011;63583;49.976;20.182;2023-09-18T09:38:29;11.55;;;8.73;;
75021;SDS011;63583;49.976;20.182;2023-09-18T09:40:59;11.07;;;9.35;;
75021;SDS011;63583;49.976;20.182;2023-09-18T09:43:31;11.40;;;9.20;;
75021;SDS011;63583;49.976;20.182;2023-09-18T09:45:58;12.52;;;9.02;;
75021;SDS011;63583;49.976;20.182;2023-09-18T09:48:25;11.65;;;9.20;;
75021;SDS011;63583;49.976;20.182;2023-09-18T09:50:51;12.90;;;9.32;;
75021;SDS011;63583;49.976;20.182;2023-09-18T09:53:19;10.18;;;8.30;;
75021;SDS011;63583;49.976;20.182;2023-09-18T09:55:51;11.13;;;8.02;;
75021;SDS011;63583;49.976;20.182;2023-09-18T09:58:20;11.32;;;8.68;;
75021;SDS011;63583;49.976;20.182;2023-09-18T10:00:52;10.32;;;8.13;;
75021;SDS011;63583;49.976;20.182;2023-09-18T10:03:20;9.50;;;7.93;;
75021;SDS011;63583;49.976;20.182;2023-09-18T10:05:47;9.50;;;7.40;;
75021;SDS011;63583;49.976;20.182;2023-09-18T10:10:48;9.00;;;7.65;;
75021;SDS011;63583;49.976;20.182;2023-09-18T10:13:16;11.30;;;7.72;;
75021;SDS011;63583;49.976;20.182;2023-09-18T10:15:48;11.98;;;8.57;;
75021;SDS011;63583;49.976;20.182;2023-09-18T10:20:53;9.30;;;7.30;;
75021;SDS011;63583;49.976;20.182;2023-09-18T10:23:31;11.05;;;7.85;;
75021;SDS011;63583;49.976;20.182;2023-09-18T10:26:09;9.35;;;7.47;;
75021;SDS011;63583;49.976;20.182;2023-09-18T10:28:37;10.48;;;8.05;;
75021;SDS011;63583;49.976;20.182;2023-09-18T10:31:04;9.00;;;7.53;;
75021;SDS011;63583;49.976;20.182;2023-09-18T10:33:31;11.20;;;8.15;;
75021;SDS011;63583;49.976;20.182;2023-09-18T10:35:57;10.55;;;7.75;;
75021;SDS011;63583;49.976;20.182;2023-09-18T10:38:24;10.63;;;8.13;;
75021;SDS011;63583;49.976;20.182;2023-09-18T10:40:50;11.70;;;8.95;;
75021;SDS011;63583;49.976;20.182;2023-09-18T10:43:17;13.65;;;9.32;;
75021;SDS011;63583;49.976;20.182;2023-09-18T10:45:43;11.40;;;9.02;;
75021;SDS011;63583;49.976;20.182;2023-09-18T10:48:10;11.10;;;8.25;;
75021;SDS011;63583;49.976;20.182;2023-09-18T10:50:38;11.98;;;8.23;;
75021;SDS011;63583;49.976;20.182;2023-09-18T10:53:06;9.50;;;7.25;;
75021;SDS011;63583;49.976;20.182;2023-09-18T10:55:31;9.65;;;7.93;;
75021;SDS011;63583;49.976;20.182;2023-09-18T10:57:59;11.18;;;7.30;;
75021;SDS011;63583;49.976;20.182;2023-09-18T11:00:26;10.40;;;7.00;;
75021;SDS011;63583;49.976;20.182;2023-09-18T11:02:56;10.40;;;7.07;;
75021;SDS011;63583;49.976;20.182;2023-09-18T11:05:44;11.27;;;6.80;;
75021;SDS011;63583;49.976;20.182;2023-09-18T11:11:01;7.93;;;6.53;;
75021;SDS011;63583;49.976;20.182;2023-09-18T11:13:46;7.95;;;6.35;;
75021;SDS011;63583;49.976;20.182;2023-09-18T11:21:24;7.15;;;6.38;;
75021;SDS011;63583;49.976;20.182;2023-09-18T11:24:01;7.57;;;6.03;;
75021;SDS011;63583;49.976;20.182;2023-09-18T11:26:29;8.73;;;6.85;;
75021;SDS011;63583;49.976;20.182;2023-09-18T11:29:00;9.00;;;6.60;;
75021;SDS011;63583;49.976;20.182;2023-09-18T11:34:19;8.40;;;6.88;;
75021;SDS011;63583;49.976;20.182;2023-09-18T11:36:45;8.98;;;6.45;;
75021;SDS011;63583;49.976;20.182;2023-09-18T11:39:12;8.93;;;7.00;;
75021;SDS011;63583;49.976;20.182;2023-09-18T11:41:38;9.50;;;7.18;;
75021;SDS011;63583;49.976;20.182;2023-09-18T11:46:40;7.95;;;6.88;;
75021;SDS011;63583;49.976;20.182;2023-09-18T11:49:10;7.68;;;6.85;;
75021;SDS011;63583;49.976;20.182;2023-09-18T11:51:37;8.95;;;6.80;;
75021;SDS011;63583;49.976;20.182;2023-09-18T11:54:05;9.73;;;7.38;;
75021;SDS011;63583;49.976;20.182;2023-09-18T11:56:32;8.35;;;7.28;;
75021;SDS011;63583;49.976;20.182;2023-09-18T11:58:58;8.70;;;6.85;;
75021;SDS011;63583;49.976;20.182;2023-09-18T12:01:25;7.68;;;6.72;;
75021;SDS011;63583;49.976;20.182;2023-09-18T12:03:59;8.20;;;6.85;;
75021;SDS011;63583;49.976;20.182;2023-09-18T12:06:25;9.20;;;7.43;;
75021;SDS011;63583;49.976;20.182;2023-09-18T12:08:52;9.15;;;7.75;;
75021;SDS011;63583;49.976;20.182;2023-09-18T12:11:19;8.02;;;7.03;;
75021;SDS011;63583;49.976;20.182;2023-09-18T12:13:52;8.15;;;6.63;;
75021;SDS011;63583;49.976;20.182;2023-09-18T12:16:18;11.43;;;7.47;;
75021;SDS011;63583;49.976;20.182;2023-09-18T12:18:44;8.63;;;7.18;;
75021;SDS011;63583;49.976;20.182;2023-09-18T12:21:13;9.00;;;7.05;;
75021;SDS011;63583;49.976;20.182;2023-09-18T12:23:39;8.27;;;6.72;;
75021;SDS011;63583;49.976;20.182;2023-09-18T12:26:05;7.25;;;6.35;;
75021;SDS011;63583;49.976;20.182;2023-09-18T12:28:33;10.25;;;6.57;;
75021;SDS011;63583;49.976;20.182;2023-09-18T12:31:00;8.75;;;6.80;;
75021;SDS011;63583;49.976;20.182;2023-09-18T12:33:34;10.00;;;7.07;;
75021;SDS011;63583;49.976;20.182;2023-09-18T12:36:01;9.02;;;6.20;;
75021;SDS011;63583;49.976;20.182;2023-09-18T12:38:28;9.38;;;6.72;;
75021;SDS011;63583;49.976;20.182;2023-09-18T12:40:55;8.57;;;6.88;;
75021;SDS011;63583;49.976;20.182;2023-09-18T12:43:21;8.02;;;6.60;;
75021;SDS011;63583;49.976;20.182;2023-09-18T12:45:55;8.50;;;7.28;;
75021;SDS011;63583;49.976;20.182;2023-09-18T12:48:21;9.48;;;7.28;;
75021;SDS011;63583;49.976;20.182;2023-09-18T12:50:51;7.82;;;6.28;;
75021;SDS011;63583;49.976;20.182;2023-09-18T12:53:21;8.23;;;6.80;;
75021;SDS011;63583;49.976;20.182;2023-09-18T12:55:48;8.98;;;6.75;;
75021;SDS011;63583;49.976;20.182;2023-09-18T12:58:18;8.65;;;6.30;;
75021;SDS011;63583;49.976;20.182;2023-09-18T13:00:45;9.38;;;6.80;;
75021;SDS011;63583;49.976;20.182;2023-09-18T13:03:13;7.85;;;6.38;;
75021;SDS011;63583;49.976;20.182;2023-09-18T13:05:38;8.15;;;6.45;;
75021;SDS011;63583;49.976;20.182;2023-09-18T13:08:05;8.60;;;6.50;;
75021;SDS011;63583;49.976;20.182;2023-09-18T13:10:40;8.77;;;6.30;;
75021;SDS011;63583;49.976;20.182;2023-09-18T13:13:12;7.82;;;6.13;;
75021;SDS011;63583;49.976;20.182;2023-09-18T13:15:41;8.23;;;6.28;;
75021;SDS011;63583;49.976;20.182;2023-09-18T13:18:09;6.70;;;5.97;;
75021;SDS011;63583;49.976;20.182;2023-09-18T13:20:39;8.73;;;6.40;;
75021;SDS011;63583;49.976;20.182;2023-09-18T13:23:08;7.78;;;6.40;;
75021;SDS011;63583;49.976;20.182;2023-09-18T13:25:35;8.65;;;6.03;;
75021;SDS011;63583;49.976;20.182;2023-09-18T13:28:07;8.75;;;6.38;;
75021;SDS011;63583;49.976;20.182;2023-09-18T13:30:35;8.60;;;6.43;;
75021;SDS011;63583;49.976;20.182;2023-09-18T13:33:05;8.13;;;6.13;;
75021;SDS011;63583;49.976;20.182;2023-09-18T13:35:33;9.13;;;6.53;;
75021;SDS011;63583;49.976;20.182;2023-09-18T13:38:00;7.88;;;6.32;;
75021;SDS011;63583;49.976;20.182;2023-09-18T13:40:29;7.97;;;6.20;;
75021;SDS011;63583;49.976;20.182;2023-09-18T13:42:55;8.43;;;6.65;;
75021;SDS011;63583;49.976;20.182;2023-09-18T13:45:20;8.18;;;6.50;;
75021;SDS011;63583;49.976;20.182;2023-09-18T13:47:46;8.82;;;6.43;;
75021;SDS011;63583;49.976;20.182;2023-09-18T13:50:15;8.52;;;6.60;;
75021;SDS011;63583;49.976;20.182;2023-09-18T13:52:40;11.02;;;7.20;;
75021;SDS011;63583;49.976;20.182;2023-09-18T13:55:06;11.52;;;7.15;;
75021;SDS011;63583;49.976;20.182;2023-09-18T13:57:34;8.35;;;6.82;;
75021;SDS011;63583;49.976;20.182;2023-09-18T14:00:01;11.15;;;6.45;;
75021;SDS011;63583;49.976;20.182;2023-09-18T14:02:32;9.32;;;6.40;;
75021;SDS011;63583;49.976;20.182;2023-09-18T14:04:58;8.45;;;6.60;;
75021;SDS011;63583;49.976;20.182;2023-09-18T14:07:24;7.45;;;5.65;;
75021;SDS011;63583;49.976;20.182;2023-09-18T14:09:50;8.32;;;5.28;;
75021;SDS011;63583;49.976;20.182;2023-09-18T14:12:16;8.55;;;6.03;;
75021;SDS011;63583;49.976;20.182;2023-09-18T14:14:42;8.57;;;5.50;;
75021;SDS011;63583;49.976;20.182;2023-09-18T14:17:09;6.95;;;5.50;;
75021;SDS011;63583;49.976;20.182;2023-09-18T14:19:35;7.30;;;5.40;;
75021;SDS011;63583;49.976;20.182;2023-09-18T14:22:07;7.20;;;5.60;;
75021;SDS011;63583;49.976;20.182;2023-09-18T14:24:33;8.02;;;5.50;;
75021;SDS011;63583;49.976;20.182;2023-09-18T14:27:00;8.32;;;5.53;;
75021;SDS011;63583;49.976;20.182;2023-09-18T14:29:26;9.00;;;5.88;;
75021;SDS011;63583;49.976;20.182;2023-09-18T14:31:52;6.78;;;4.90;;
75021;SDS011;63583;49.976;20.182;2023-09-18T14:34:18;7.80;;;5.68;;
75021;SDS011;63583;49.976;20.182;2023-09-18T14:36:44;8.13;;;6.20;;
75021;SDS011;63583;49.976;20.182;2023-09-18T14:39:10;8.75;;;6.47;;
75021;SDS011;63583;49.976;20.182;2023-09-18T14:41:37;7.75;;;5.55;;
75021;SDS011;63583;49.976;20.182;2023-09-18T14:44:04;6.68;;;5.80;;
75021;SDS011;63583;49.976;20.182;2023-09-18T14:46:31;7.72;;;6.05;;
75021;SDS011;63583;49.976;20.182;2023-09-18T14:49:00;7.43;;;5.50;;
75021;SDS011;63583;49.976;20.182;2023-09-18T14:51:27;6.60;;;5.88;;
75021;SDS011;63583;49.976;20.182;2023-09-18T14:53:56;7.18;;;5.97;;
75021;SDS011;63583;49.976;20.182;2023-09-18T14:56:23;7.53;;;5.95;;
75021;SDS011;63583;49.976;20.182;2023-09-18T14:58:49;7.90;;;6.57;;